sensor_id;sensor_type;location;lat;lon;timestamp;P1;durP1;ratioP1;P2;durP2;ratioP2
7881;SDS011;3986;41.884;23.466;2022-11-12T00:01:54;39.77;;;27.43;;
7881;SDS011;3986;41.884;23.466;2022-11-12T00:04:21;31.10;;;27.60;;
7881;SDS011;3986;41.884;23.466;2022-11-12T00:06:48;27.53;;;24.27;;
7881;SDS011;3986;41.884;23.466;2022-11-12T00:09:15;24.87;;;21.87;;
7881;SDS011;3986;41.884;23.466;2022-11-12T00:11:43;23.13;;;19.23;;
7881;SDS011;3986;41.884;23.466;2022-11-12T00:14:09;29.40;;;20.33;;
7881;SDS011;3986;41.884;23.466;2022-11-12T00:16:36;32.43;;;21.97;;
7881;SDS011;3986;41.884;23.466;2022-11-12T00:19:03;41.63;;;21.47;;
7881;SDS011;3986;41.884;23.466;2022-11-12T00:21:30;26.13;;;20.23;;
7881;SDS011;3986;41.884;23.466;2022-11-12T00:23:57;34.03;;;24.23;;
7881;SDS011;3986;41.884;23.466;2022-11-12T00:26:23;28.50;;;24.13;;
7881;SDS011;3986;41.884;23.466;2022-11-12T00:28:52;28.23;;;25.23;;
7881;SDS011;3986;41.884;23.466;2022-11-12T00:31:18;33.10;;;25.93;;
7881;SDS011;3986;41.884;23.466;2022-11-12T00:33:45;34.50;;;30.63;;
7881;SDS011;3986;41.884;23.466;2022-11-12T00:36:12;34.67;;;31.03;;
7881;SDS011;3986;41.884;23.466;2022-11-12T00:38:39;43.07;;;32.73;;
7881;SDS011;3986;41.884;23.466;2022-11-12T00:41:06;42.13;;;35.33;;
7881;SDS011;3986;41.884;23.466;2022-11-12T00:43:33;40.10;;;34.70;;
7881;SDS011;3986;41.884;23.466;2022-11-12T00:46:01;42.73;;;33.93;;
7881;SDS011;3986;41.884;23.466;2022-11-12T00:48:28;45.07;;;35.03;;
7881;SDS011;3986;41.884;23.466;2022-11-12T00:50:58;37.93;;;33.43;;
7881;SDS011;3986;41.884;23.466;2022-11-12T00:53:25;37.00;;;31.80;;
7881;SDS011;3986;41.884;23.466;2022-11-12T00:55:52;36.53;;;30.77;;
7881;SDS011;3986;41.884;23.466;2022-11-12T00:58:19;40.33;;;32.40;;
7881;SDS011;3986;41.884;23.466;2022-11-12T01:00:46;35.60;;;31.83;;
7881;SDS011;3986;41.884;23.466;2022-11-12T01:03:14;46.73;;;33.37;;
7881;SDS011;3986;41.884;23.466;2022-11-12T01:05:41;45.33;;;33.27;;
7881;SDS011;3986;41.884;23.466;2022-11-12T01:08:07;47.43;;;32.27;;
7881;SDS011;3986;41.884;23.466;2022-11-12T01:10:34;39.80;;;28.97;;
7881;SDS011;3986;41.884;23.466;2022-11-12T01:13:01;32.00;;;27.90;;
7881;SDS011;3986;41.884;23.466;2022-11-12T01:15:28;32.10;;;27.07;;
7881;SDS011;3986;41.884;23.466;2022-11-12T01:17:55;33.30;;;27.73;;
7881;SDS011;3986;41.884;23.466;2022-11-12T01:20:23;28.93;;;26.00;;
7881;SDS011;3986;41.884;23.466;2022-11-12T01:22:50;29.07;;;24.50;;
7881;SDS011;3986;41.884;23.466;2022-11-12T01:25:17;30.90;;;26.33;;
7881;SDS011;3986;41.884;23.466;2022-11-12T01:27:43;33.37;;;25.00;;
7881;SDS011;3986;41.884;23.466;2022-11-12T01:30:10;34.87;;;22.73;;
7881;SDS011;3986;41.884;23.466;2022-11-12T01:32:37;43.00;;;28.27;;
7881;SDS011;3986;41.884;23.466;2022-11-12T01:35:04;29.80;;;25.13;;
7881;SDS011;3986;41.884;23.466;2022-11-12T01:37:33;31.63;;;23.13;;
7881;SDS011;3986;41.884;23.466;2022-11-12T01:40:00;29.53;;;24.40;;
7881;SDS011;3986;41.884;23.466;2022-11-12T01:42:27;36.00;;;32.17;;
7881;SDS011;3986;41.884;23.466;2022-11-12T01:44:55;50.43;;;45.10;;
7881;SDS011;3986;41.884;23.466;2022-11-12T01:47:23;48.83;;;43.83;;
7881;SDS011;3986;41.884;23.466;2022-11-12T01:49:54;51.53;;;44.97;;
7881;SDS011;3986;41.884;23.466;2022-11-12T01:52:24;54.60;;;45.63;;
7881;SDS011;3986;41.884;23.466;2022-11-12T01:54:56;47.97;;;42.77;;
7881;SDS011;3986;41.884;23.466;2022-11-12T01:57:30;49.80;;;41.13;;
7881;SDS011;3986;41.884;23.466;2022-11-12T02:00:04;53.07;;;41.00;;
7881;SDS011;3986;41.884;23.466;2022-11-12T02:02:33;51.63;;;39.67;;
7881;SDS011;3986;41.884;23.466;2022-11-12T02:05:01;49.83;;;44.47;;
7881;SDS011;3986;41.884;23.466;2022-11-12T02:07:29;44.87;;;40.00;;
7881;SDS011;3986;41.884;23.466;2022-11-12T02:10:00;45.23;;;37.87;;
7881;SDS011;3986;41.884;23.466;2022-11-12T02:12:27;47.80;;;41.03;;
7881;SDS011;3986;41.884;23.466;2022-11-12T02:15:12;88.07;;;65.83;;
7881;SDS011;3986;41.884;23.466;2022-11-12T02:17:39;82.60;;;63.70;;
7881;SDS011;3986;41.884;23.466;2022-11-12T02:20:07;72.23;;;57.33;;
7881;SDS011;3986;41.884;23.466;2022-11-12T02:22:36;74.17;;;59.77;;
7881;SDS011;3986;41.884;23.466;2022-11-12T02:25:03;61.13;;;49.87;;
7881;SDS011;3986;41.884;23.466;2022-11-12T02:27:31;58.27;;;50.17;;
7881;SDS011;3986;41.884;23.466;2022-11-12T02:29:58;48.30;;;43.20;;
7881;SDS011;3986;41.884;23.466;2022-11-12T02:32:25;45.83;;;41.03;;
7881;SDS011;3986;41.884;23.466;2022-11-12T02:34:51;45.20;;;37.87;;
7881;SDS011;3986;41.884;23.466;2022-11-12T02:37:18;51.37;;;35.97;;
7881;SDS011;3986;41.884;23.466;2022-11-12T02:39:46;52.13;;;38.10;;
7881;SDS011;3986;41.884;23.466;2022-11-12T02:42:13;54.33;;;39.30;;
7881;SDS011;3986;41.884;23.466;2022-11-12T02:44:40;44.80;;;35.07;;
7881;SDS011;3986;41.884;23.466;2022-11-12T02:47:07;38.70;;;33.60;;
7881;SDS011;3986;41.884;23.466;2022-11-12T02:49:33;40.33;;;35.57;;
7881;SDS011;3986;41.884;23.466;2022-11-12T02:52:00;41.77;;;37.47;;
7881;SDS011;3986;41.884;23.466;2022-11-12T02:54:27;49.10;;;43.87;;
7881;SDS011;3986;41.884;23.466;2022-11-12T02:56:55;55.03;;;47.37;;
7881;SDS011;3986;41.884;23.466;2022-11-12T02:59:22;57.60;;;48.60;;
7881;SDS011;3986;41.884;23.466;2022-11-12T03:01:49;63.43;;;50.97;;
7881;SDS011;3986;41.884;23.466;2022-11-12T03:04:16;67.53;;;56.53;;
7881;SDS011;3986;41.884;23.466;2022-11-12T03:06:42;64.07;;;57.10;;
7881;SDS011;3986;41.884;23.466;2022-11-12T03:09:10;80.87;;;61.90;;
7881;SDS011;3986;41.884;23.466;2022-11-12T03:11:37;68.33;;;60.83;;
7881;SDS011;3986;41.884;23.466;2022-11-12T03:14:05;72.47;;;65.07;;
7881;SDS011;3986;41.884;23.466;2022-11-12T03:16:32;74.67;;;66.00;;
7881;SDS011;3986;41.884;23.466;2022-11-12T03:19:05;71.63;;;64.53;;
7881;SDS011;3986;41.884;23.466;2022-11-12T03:21:32;72.33;;;58.30;;
7881;SDS011;3986;41.884;23.466;2022-11-12T03:23:59;65.30;;;58.37;;
7881;SDS011;3986;41.884;23.466;2022-11-12T03:26:26;64.17;;;57.43;;
7881;SDS011;3986;41.884;23.466;2022-11-12T03:28:53;70.60;;;56.60;;
7881;SDS011;3986;41.884;23.466;2022-11-12T03:31:21;66.83;;;55.10;;
7881;SDS011;3986;41.884;23.466;2022-11-12T03:33:48;66.73;;;57.93;;
7881;SDS011;3986;41.884;23.466;2022-11-12T03:36:15;67.93;;;55.80;;
7881;SDS011;3986;41.884;23.466;2022-11-12T03:38:42;66.70;;;57.23;;
7881;SDS011;3986;41.884;23.466;2022-11-12T03:41:08;63.40;;;56.87;;
7881;SDS011;3986;41.884;23.466;2022-11-12T03:43:35;69.33;;;62.07;;
7881;SDS011;3986;41.884;23.466;2022-11-12T03:46:02;63.83;;;57.00;;
7881;SDS011;3986;41.884;23.466;2022-11-12T03:48:30;65.43;;;58.30;;
7881;SDS011;3986;41.884;23.466;2022-11-12T03:50:57;82.73;;;62.63;;
7881;SDS011;3986;41.884;23.466;2022-11-12T03:53:25;74.20;;;62.70;;
7881;SDS011;3986;41.884;23.466;2022-11-12T03:55:52;77.30;;;63.73;;
7881;SDS011;3986;41.884;23.466;2022-11-12T03:58:19;70.60;;;57.17;;
7881;SDS011;3986;41.884;23.466;2022-11-12T04:00:45;74.43;;;61.40;;
7881;SDS011;3986;41.884;23.466;2022-11-12T04:03:12;73.63;;;60.27;;
7881;SDS011;3986;41.884;23.466;2022-11-12T04:05:40;69.70;;;62.30;;
7881;SDS011;3986;41.884;23.466;2022-11-12T04:08:25;79.77;;;65.63;;
7881;SDS011;3986;41.884;23.466;2022-11-12T04:11:04;63.87;;;57.30;;
7881;SDS011;3986;41.884;23.466;2022-11-12T04:13:33;65.17;;;55.87;;
7881;SDS011;3986;41.884;23.466;2022-11-12T04:16:00;61.13;;;51.67;;
7881;SDS011;3986;41.884;23.466;2022-11-12T04:18:46;56.93;;;48.30;;
7881;SDS011;3986;41.884;23.466;2022-11-12T04:21:33;57.53;;;51.27;;
7881;SDS011;3986;41.884;23.466;2022-11-12T04:24:21;57.50;;;48.30;;
7881;SDS011;3986;41.884;23.466;2022-11-12T04:27:11;51.87;;;46.33;;
7881;SDS011;3986;41.884;23.466;2022-11-12T04:29:40;57.73;;;51.83;;
7881;SDS011;3986;41.884;23.466;2022-11-12T04:32:25;62.23;;;46.73;;
7881;SDS011;3986;41.884;23.466;2022-11-12T04:34:52;56.23;;;45.80;;
7881;SDS011;3986;41.884;23.466;2022-11-12T04:37:20;53.90;;;48.20;;
7881;SDS011;3986;41.884;23.466;2022-11-12T04:39:48;56.23;;;50.63;;
7881;SDS011;3986;41.884;23.466;2022-11-12T04:42:15;59.47;;;52.20;;
7881;SDS011;3986;41.884;23.466;2022-11-12T04:44:59;78.70;;;60.50;;
7881;SDS011;3986;41.884;23.466;2022-11-12T04:47:30;71.07;;;57.30;;
7881;SDS011;3986;41.884;23.466;2022-11-12T04:49:59;77.30;;;56.83;;
7881;SDS011;3986;41.884;23.466;2022-11-12T04:52:27;70.27;;;56.10;;
7881;SDS011;3986;41.884;23.466;2022-11-12T04:54:55;57.53;;;51.20;;
7881;SDS011;3986;41.884;23.466;2022-11-12T04:57:23;75.10;;;55.33;;
7881;SDS011;3986;41.884;23.466;2022-11-12T04:59:50;61.80;;;50.00;;
7881;SDS011;3986;41.884;23.466;2022-11-12T05:02:17;60.03;;;50.93;;
7881;SDS011;3986;41.884;23.466;2022-11-12T05:04:44;52.80;;;47.40;;
7881;SDS011;3986;41.884;23.466;2022-11-12T05:07:11;51.27;;;45.93;;
7881;SDS011;3986;41.884;23.466;2022-11-12T05:09:39;52.37;;;46.13;;
7881;SDS011;3986;41.884;23.466;2022-11-12T05:12:06;61.93;;;52.73;;
7881;SDS011;3986;41.884;23.466;2022-11-12T05:14:34;59.93;;;48.00;;
7881;SDS011;3986;41.884;23.466;2022-11-12T05:17:01;63.87;;;54.60;;
7881;SDS011;3986;41.884;23.466;2022-11-12T05:19:28;77.00;;;61.07;;
7881;SDS011;3986;41.884;23.466;2022-11-12T05:21:54;74.70;;;62.23;;
7881;SDS011;3986;41.884;23.466;2022-11-12T05:24:30;71.33;;;62.63;;
7881;SDS011;3986;41.884;23.466;2022-11-12T05:26:58;90.27;;;80.20;;
7881;SDS011;3986;41.884;23.466;2022-11-12T05:29:25;93.80;;;78.97;;
7881;SDS011;3986;41.884;23.466;2022-11-12T05:31:52;101.87;;;91.30;;
7881;SDS011;3986;41.884;23.466;2022-11-12T05:34:19;112.57;;;101.83;;
7881;SDS011;3986;41.884;23.466;2022-11-12T05:36:46;132.10;;;118.53;;
7881;SDS011;3986;41.884;23.466;2022-11-12T05:39:12;121.43;;;109.53;;
7881;SDS011;3986;41.884;23.466;2022-11-12T05:41:39;93.67;;;82.60;;
7881;SDS011;3986;41.884;23.466;2022-11-12T05:44:08;85.13;;;65.87;;
7881;SDS011;3986;41.884;23.466;2022-11-12T05:46:35;66.63;;;57.60;;
7881;SDS011;3986;41.884;23.466;2022-11-12T05:49:02;72.77;;;62.67;;
7881;SDS011;3986;41.884;23.466;2022-11-12T05:51:29;68.33;;;57.77;;
7881;SDS011;3986;41.884;23.466;2022-11-12T05:53:55;63.77;;;55.23;;
7881;SDS011;3986;41.884;23.466;2022-11-12T05:56:22;79.10;;;56.53;;
7881;SDS011;3986;41.884;23.466;2022-11-12T05:58:49;72.80;;;65.30;;
7881;SDS011;3986;41.884;23.466;2022-11-12T06:01:17;87.23;;;71.33;;
7881;SDS011;3986;41.884;23.466;2022-11-12T06:03:44;70.43;;;63.03;;
7881;SDS011;3986;41.884;23.466;2022-11-12T06:06:11;74.83;;;66.53;;
7881;SDS011;3986;41.884;23.466;2022-11-12T06:08:39;79.27;;;70.83;;
7881;SDS011;3986;41.884;23.466;2022-11-12T06:11:06;96.23;;;84.10;;
7881;SDS011;3986;41.884;23.466;2022-11-12T06:13:33;92.60;;;80.77;;
7881;SDS011;3986;41.884;23.466;2022-11-12T06:16:00;107.80;;;86.70;;
7881;SDS011;3986;41.884;23.466;2022-11-12T06:18:28;116.00;;;101.47;;
7881;SDS011;3986;41.884;23.466;2022-11-12T06:20:59;107.97;;;96.57;;
7881;SDS011;3986;41.884;23.466;2022-11-12T06:23:47;100.97;;;89.93;;
7881;SDS011;3986;41.884;23.466;2022-11-12T06:26:18;111.67;;;100.20;;
7881;SDS011;3986;41.884;23.466;2022-11-12T06:28:45;137.30;;;123.73;;
7881;SDS011;3986;41.884;23.466;2022-11-12T06:31:13;132.50;;;119.50;;
7881;SDS011;3986;41.884;23.466;2022-11-12T06:33:42;124.53;;;112.23;;
7881;SDS011;3986;41.884;23.466;2022-11-12T06:36:10;158.47;;;143.73;;
7881;SDS011;3986;41.884;23.466;2022-11-12T06:38:39;159.50;;;142.30;;
7881;SDS011;3986;41.884;23.466;2022-11-12T06:41:06;155.73;;;135.47;;
7881;SDS011;3986;41.884;23.466;2022-11-12T06:43:35;206.73;;;163.53;;
7881;SDS011;3986;41.884;23.466;2022-11-12T06:48:28;177.83;;;157.37;;
7881;SDS011;3986;41.884;23.466;2022-11-12T06:50:56;168.20;;;149.77;;
7881;SDS011;3986;41.884;23.466;2022-11-12T06:53:23;150.13;;;134.80;;
7881;SDS011;3986;41.884;23.466;2022-11-12T06:55:50;134.30;;;120.37;;
7881;SDS011;3986;41.884;23.466;2022-11-12T06:58:17;123.57;;;110.63;;
7881;SDS011;3986;41.884;23.466;2022-11-12T07:00:44;119.77;;;107.47;;
7881;SDS011;3986;41.884;23.466;2022-11-12T07:03:12;120.50;;;108.23;;
7881;SDS011;3986;41.884;23.466;2022-11-12T07:05:41;130.87;;;117.53;;
7881;SDS011;3986;41.884;23.466;2022-11-12T07:08:08;165.10;;;142.17;;
7881;SDS011;3986;41.884;23.466;2022-11-12T07:10:35;161.20;;;144.17;;
7881;SDS011;3986;41.884;23.466;2022-11-12T07:13:02;166.00;;;144.90;;
7881;SDS011;3986;41.884;23.466;2022-11-12T07:15:29;118.90;;;106.77;;
7881;SDS011;3986;41.884;23.466;2022-11-12T07:17:55;120.87;;;99.83;;
7881;SDS011;3986;41.884;23.466;2022-11-12T07:20:22;106.27;;;95.50;;
7881;SDS011;3986;41.884;23.466;2022-11-12T07:22:50;121.90;;;108.80;;
7881;SDS011;3986;41.884;23.466;2022-11-12T07:25:17;126.10;;;112.77;;
7881;SDS011;3986;41.884;23.466;2022-11-12T07:27:44;132.07;;;117.73;;
7881;SDS011;3986;41.884;23.466;2022-11-12T07:30:11;138.33;;;121.10;;
7881;SDS011;3986;41.884;23.466;2022-11-12T07:32:38;138.30;;;120.83;;
7881;SDS011;3986;41.884;23.466;2022-11-12T07:35:06;219.97;;;185.50;;
7881;SDS011;3986;41.884;23.466;2022-11-12T07:37:33;170.73;;;152.33;;
7881;SDS011;3986;41.884;23.466;2022-11-12T07:40:02;186.00;;;164.87;;
7881;SDS011;3986;41.884;23.466;2022-11-12T07:42:31;195.30;;;175.93;;
7881;SDS011;3986;41.884;23.466;2022-11-12T07:44:58;195.43;;;175.73;;
7881;SDS011;3986;41.884;23.466;2022-11-12T07:47:25;190.37;;;170.57;;
7881;SDS011;3986;41.884;23.466;2022-11-12T07:49:52;199.73;;;179.40;;
7881;SDS011;3986;41.884;23.466;2022-11-12T07:52:19;189.00;;;170.23;;
7881;SDS011;3986;41.884;23.466;2022-11-12T07:54:46;186.70;;;166.23;;
7881;SDS011;3986;41.884;23.466;2022-11-12T07:57:14;160.10;;;143.03;;
7881;SDS011;3986;41.884;23.466;2022-11-12T07:59:41;154.80;;;138.90;;
7881;SDS011;3986;41.884;23.466;2022-11-12T08:02:08;167.60;;;147.37;;
7881;SDS011;3986;41.884;23.466;2022-11-12T08:04:35;105.20;;;92.63;;
7881;SDS011;3986;41.884;23.466;2022-11-12T08:07:02;100.67;;;85.33;;
7881;SDS011;3986;41.884;23.466;2022-11-12T08:09:29;132.00;;;116.87;;
7881;SDS011;3986;41.884;23.466;2022-11-12T08:11:56;145.77;;;127.63;;
7881;SDS011;3986;41.884;23.466;2022-11-12T08:14:24;143.83;;;128.10;;
7881;SDS011;3986;41.884;23.466;2022-11-12T08:16:51;143.60;;;127.77;;
7881;SDS011;3986;41.884;23.466;2022-11-12T08:19:17;140.20;;;125.70;;
7881;SDS011;3986;41.884;23.466;2022-11-12T08:21:44;148.63;;;133.13;;
7881;SDS011;3986;41.884;23.466;2022-11-12T08:24:11;136.43;;;108.73;;
7881;SDS011;3986;41.884;23.466;2022-11-12T08:26:38;97.30;;;86.90;;
7881;SDS011;3986;41.884;23.466;2022-11-12T08:29:05;78.23;;;56.13;;
7881;SDS011;3986;41.884;23.466;2022-11-12T08:31:34;88.30;;;69.50;;
7881;SDS011;3986;41.884;23.466;2022-11-12T08:34:01;110.43;;;70.20;;
7881;SDS011;3986;41.884;23.466;2022-11-12T08:36:36;80.83;;;62.67;;
7881;SDS011;3986;41.884;23.466;2022-11-12T08:39:04;100.10;;;47.97;;
7881;SDS011;3986;41.884;23.466;2022-11-12T08:41:31;80.90;;;58.30;;
7881;SDS011;3986;41.884;23.466;2022-11-12T08:43:58;51.97;;;38.27;;
7881;SDS011;3986;41.884;23.466;2022-11-12T08:46:25;37.77;;;33.67;;
7881;SDS011;3986;41.884;23.466;2022-11-12T08:48:53;42.87;;;26.17;;
7881;SDS011;3986;41.884;23.466;2022-11-12T08:51:20;55.03;;;25.33;;
7881;SDS011;3986;41.884;23.466;2022-11-12T08:53:47;34.53;;;24.27;;
7881;SDS011;3986;41.884;23.466;2022-11-12T08:56:14;59.30;;;29.97;;
7881;SDS011;3986;41.884;23.466;2022-11-12T08:58:40;80.30;;;32.97;;
7881;SDS011;3986;41.884;23.466;2022-11-12T09:01:07;57.30;;;32.57;;
7881;SDS011;3986;41.884;23.466;2022-11-12T09:03:34;65.40;;;26.93;;
7881;SDS011;3986;41.884;23.466;2022-11-12T09:06:03;72.80;;;28.67;;
7881;SDS011;3986;41.884;23.466;2022-11-12T09:08:32;43.13;;;29.23;;
7881;SDS011;3986;41.884;23.466;2022-11-12T09:11:00;33.03;;;18.37;;
7881;SDS011;3986;41.884;23.466;2022-11-12T09:13:27;43.73;;;20.93;;
7881;SDS011;3986;41.884;23.466;2022-11-12T09:15:58;53.07;;;26.30;;
7881;SDS011;3986;41.884;23.466;2022-11-12T09:18:26;33.57;;;18.23;;
7881;SDS011;3986;41.884;23.466;2022-11-12T09:20:52;36.60;;;18.40;;
7881;SDS011;3986;41.884;23.466;2022-11-12T09:23:21;39.07;;;20.30;;
7881;SDS011;3986;41.884;23.466;2022-11-12T09:25:47;80.93;;;25.70;;
7881;SDS011;3986;41.884;23.466;2022-11-12T09:28:15;46.53;;;22.63;;
7881;SDS011;3986;41.884;23.466;2022-11-12T09:30:44;40.37;;;16.10;;
7881;SDS011;3986;41.884;23.466;2022-11-12T09:33:13;42.37;;;20.03;;
7881;SDS011;3986;41.884;23.466;2022-11-12T09:35:40;34.40;;;12.37;;
7881;SDS011;3986;41.884;23.466;2022-11-12T09:38:07;57.50;;;11.30;;
7881;SDS011;3986;41.884;23.466;2022-11-12T09:40:40;79.40;;;29.33;;
7881;SDS011;3986;41.884;23.466;2022-11-12T09:43:24;74.33;;;26.20;;
7881;SDS011;3986;41.884;23.466;2022-11-12T09:45:55;57.20;;;13.63;;
7881;SDS011;3986;41.884;23.466;2022-11-12T09:48:28;53.43;;;12.63;;
7881;SDS011;3986;41.884;23.466;2022-11-12T09:51:02;26.57;;;12.60;;
7881;SDS011;3986;41.884;23.466;2022-11-12T09:53:33;45.47;;;18.67;;
7881;SDS011;3986;41.884;23.466;2022-11-12T09:56:08;60.90;;;23.60;;
7881;SDS011;3986;41.884;23.466;2022-11-12T09:58:37;70.57;;;31.63;;
7881;SDS011;3986;41.884;23.466;2022-11-12T10:01:06;75.90;;;25.17;;
7881;SDS011;3986;41.884;23.466;2022-11-12T10:03:41;49.67;;;23.50;;
7881;SDS011;3986;41.884;23.466;2022-11-12T10:06:17;48.87;;;23.30;;
7881;SDS011;3986;41.884;23.466;2022-11-12T10:08:47;56.93;;;28.70;;
7881;SDS011;3986;41.884;23.466;2022-11-12T10:11:28;55.40;;;22.93;;
7881;SDS011;3986;41.884;23.466;2022-11-12T10:14:36;75.23;;;22.73;;
7881;SDS011;3986;41.884;23.466;2022-11-12T10:17:48;60.20;;;23.93;;
7881;SDS011;3986;41.884;23.466;2022-11-12T10:20:21;48.20;;;22.37;;
7881;SDS011;3986;41.884;23.466;2022-11-12T10:22:57;54.27;;;25.13;;
7881;SDS011;3986;41.884;23.466;2022-11-12T10:25:31;89.50;;;45.20;;
7881;SDS011;3986;41.884;23.466;2022-11-12T10:28:03;62.60;;;46.37;;
7881;SDS011;3986;41.884;23.466;2022-11-12T10:30:39;88.43;;;60.10;;
7881;SDS011;3986;41.884;23.466;2022-11-12T10:33:10;122.57;;;55.00;;
7881;SDS011;3986;41.884;23.466;2022-11-12T10:35:39;128.07;;;60.17;;
7881;SDS011;3986;41.884;23.466;2022-11-12T10:38:08;107.97;;;65.37;;
7881;SDS011;3986;41.884;23.466;2022-11-12T10:40:39;170.07;;;66.13;;
7881;SDS011;3986;41.884;23.466;2022-11-12T10:43:19;115.47;;;62.50;;
7881;SDS011;3986;41.884;23.466;2022-11-12T10:45:47;99.93;;;28.63;;
7881;SDS011;3986;41.884;23.466;2022-11-12T10:48:19;110.80;;;33.60;;
7881;SDS011;3986;41.884;23.466;2022-11-12T10:50:47;96.93;;;52.90;;
7881;SDS011;3986;41.884;23.466;2022-11-12T10:53:16;611.80;;;448.40;;
7881;SDS011;3986;41.884;23.466;2022-11-12T10:55:57;291.37;;;192.20;;
7881;SDS011;3986;41.884;23.466;2022-11-12T10:58:27;477.47;;;339.37;;
7881;SDS011;3986;41.884;23.466;2022-11-12T11:00:55;218.77;;;135.37;;
7881;SDS011;3986;41.884;23.466;2022-11-12T11:03:25;304.70;;;248.27;;
7881;SDS011;3986;41.884;23.466;2022-11-12T11:05:55;565.83;;;382.97;;
7881;SDS011;3986;41.884;23.466;2022-11-12T11:08:35;875.13;;;579.10;;
7881;SDS011;3986;41.884;23.466;2022-11-12T11:11:15;1026.50;;;646.07;;
7881;SDS011;3986;41.884;23.466;2022-11-12T11:13:46;904.97;;;557.03;;
7881;SDS011;3986;41.884;23.466;2022-11-12T11:16:14;125.40;;;52.30;;
7881;SDS011;3986;41.884;23.466;2022-11-12T11:18:44;110.13;;;27.13;;
7881;SDS011;3986;41.884;23.466;2022-11-12T11:21:17;54.70;;;21.97;;
7881;SDS011;3986;41.884;23.466;2022-11-12T11:23:55;64.57;;;26.43;;
7881;SDS011;3986;41.884;23.466;2022-11-12T11:26:30;77.67;;;30.63;;
7881;SDS011;3986;41.884;23.466;2022-11-12T11:29:13;76.90;;;31.93;;
7881;SDS011;3986;41.884;23.466;2022-11-12T11:31:51;81.80;;;30.60;;
7881;SDS011;3986;41.884;23.466;2022-11-12T11:34:27;81.87;;;25.97;;
7881;SDS011;3986;41.884;23.466;2022-11-12T11:37:06;80.20;;;46.53;;
7881;SDS011;3986;41.884;23.466;2022-11-12T11:39:44;75.57;;;36.40;;
7881;SDS011;3986;41.884;23.466;2022-11-12T11:42:21;67.93;;;35.17;;
7881;SDS011;3986;41.884;23.466;2022-11-12T11:45:03;70.23;;;35.43;;
7881;SDS011;3986;41.884;23.466;2022-11-12T11:47:36;90.90;;;39.93;;
7881;SDS011;3986;41.884;23.466;2022-11-12T11:50:21;77.63;;;35.43;;
7881;SDS011;3986;41.884;23.466;2022-11-12T11:53:00;57.73;;;32.33;;
7881;SDS011;3986;41.884;23.466;2022-11-12T11:55:42;92.27;;;37.57;;
7881;SDS011;3986;41.884;23.466;2022-11-12T11:58:20;69.90;;;40.27;;
7881;SDS011;3986;41.884;23.466;2022-11-12T12:01:03;66.97;;;51.03;;
7881;SDS011;3986;41.884;23.466;2022-11-12T12:03:41;80.20;;;39.67;;
7881;SDS011;3986;41.884;23.466;2022-11-12T12:06:21;71.60;;;30.07;;
7881;SDS011;3986;41.884;23.466;2022-11-12T12:08:58;80.13;;;25.77;;
7881;SDS011;3986;41.884;23.466;2022-11-12T12:11:37;116.43;;;26.90;;
7881;SDS011;3986;41.884;23.466;2022-11-12T12:17:13;55.57;;;27.30;;
7881;SDS011;3986;41.884;23.466;2022-11-12T12:19:50;79.27;;;39.13;;
7881;SDS011;3986;41.884;23.466;2022-11-12T12:22:30;68.17;;;32.77;;
7881;SDS011;3986;41.884;23.466;2022-11-12T12:25:07;78.27;;;35.63;;
7881;SDS011;3986;41.884;23.466;2022-11-12T12:27:38;110.40;;;37.77;;
7881;SDS011;3986;41.884;23.466;2022-11-12T12:30:16;104.43;;;41.80;;
7881;SDS011;3986;41.884;23.466;2022-11-12T12:32:48;68.10;;;36.57;;
7881;SDS011;3986;41.884;23.466;2022-11-12T12:35:21;98.67;;;49.53;;
7881;SDS011;3986;41.884;23.466;2022-11-12T12:37:55;103.90;;;46.60;;
7881;SDS011;3986;41.884;23.466;2022-11-12T12:40:31;93.17;;;41.03;;
7881;SDS011;3986;41.884;23.466;2022-11-12T12:43:01;85.83;;;33.90;;
7881;SDS011;3986;41.884;23.466;2022-11-12T12:45:34;57.63;;;28.23;;
7881;SDS011;3986;41.884;23.466;2022-11-12T12:48:10;106.57;;;48.23;;
7881;SDS011;3986;41.884;23.466;2022-11-12T12:50:40;167.27;;;72.50;;
7881;SDS011;3986;41.884;23.466;2022-11-12T12:53:15;115.57;;;45.37;;
7881;SDS011;3986;41.884;23.466;2022-11-12T12:55:44;115.40;;;30.60;;
7881;SDS011;3986;41.884;23.466;2022-11-12T12:58:16;110.87;;;21.50;;
7881;SDS011;3986;41.884;23.466;2022-11-12T13:00:46;59.27;;;19.60;;
7881;SDS011;3986;41.884;23.466;2022-11-12T13:06:21;129.63;;;22.50;;
7881;SDS011;3986;41.884;23.466;2022-11-12T13:08:52;100.87;;;21.27;;
7881;SDS011;3986;41.884;23.466;2022-11-12T13:14:44;36.50;;;25.03;;
7881;SDS011;3986;41.884;23.466;2022-11-12T13:20:23;76.93;;;36.00;;
7881;SDS011;3986;41.884;23.466;2022-11-12T13:22:58;132.27;;;35.20;;
7881;SDS011;3986;41.884;23.466;2022-11-12T13:25:26;68.10;;;30.13;;
7881;SDS011;3986;41.884;23.466;2022-11-12T13:28:04;86.30;;;35.60;;
7881;SDS011;3986;41.884;23.466;2022-11-12T13:33:23;68.70;;;28.07;;
7881;SDS011;3986;41.884;23.466;2022-11-12T13:38:51;93.23;;;37.70;;
7881;SDS011;3986;41.884;23.466;2022-11-12T13:41:19;54.83;;;25.70;;
7881;SDS011;3986;41.884;23.466;2022-11-12T13:44:11;60.30;;;37.80;;
7881;SDS011;3986;41.884;23.466;2022-11-12T13:46:41;115.03;;;61.43;;
7881;SDS011;3986;41.884;23.466;2022-11-12T13:49:10;69.43;;;46.60;;
7881;SDS011;3986;41.884;23.466;2022-11-12T13:51:41;78.93;;;54.10;;
7881;SDS011;3986;41.884;23.466;2022-11-12T13:54:26;99.47;;;62.90;;
7881;SDS011;3986;41.884;23.466;2022-11-12T13:57:13;101.43;;;63.90;;
7881;SDS011;3986;41.884;23.466;2022-11-12T14:02:49;58.07;;;32.70;;
7881;SDS011;3986;41.884;23.466;2022-11-12T14:05:19;45.00;;;32.57;;
7881;SDS011;3986;41.884;23.466;2022-11-12T14:07:53;126.07;;;32.33;;
7881;SDS011;3986;41.884;23.466;2022-11-12T14:10:33;65.07;;;33.30;;
7881;SDS011;3986;41.884;23.466;2022-11-12T14:13:12;121.77;;;36.73;;
7881;SDS011;3986;41.884;23.466;2022-11-12T14:15:53;68.93;;;27.17;;
7881;SDS011;3986;41.884;23.466;2022-11-12T14:18:29;57.80;;;27.70;;
7881;SDS011;3986;41.884;23.466;2022-11-12T14:21:06;61.63;;;39.53;;
7881;SDS011;3986;41.884;23.466;2022-11-12T14:23:39;78.67;;;56.53;;
7881;SDS011;3986;41.884;23.466;2022-11-12T14:26:08;72.43;;;49.60;;
7881;SDS011;3986;41.884;23.466;2022-11-12T14:28:36;121.67;;;34.43;;
7881;SDS011;3986;41.884;23.466;2022-11-12T14:31:10;112.40;;;76.33;;
7881;SDS011;3986;41.884;23.466;2022-11-12T14:33:38;62.13;;;34.33;;
7881;SDS011;3986;41.884;23.466;2022-11-12T14:36:05;56.90;;;30.70;;
7881;SDS011;3986;41.884;23.466;2022-11-12T14:38:38;57.83;;;36.33;;
7881;SDS011;3986;41.884;23.466;2022-11-12T14:41:09;153.63;;;48.23;;
7881;SDS011;3986;41.884;23.466;2022-11-12T14:43:37;78.30;;;45.80;;
7881;SDS011;3986;41.884;23.466;2022-11-12T14:46:18;86.97;;;44.20;;
7881;SDS011;3986;41.884;23.466;2022-11-12T14:48:48;73.00;;;40.70;;
7881;SDS011;3986;41.884;23.466;2022-11-12T14:51:17;78.03;;;54.90;;
7881;SDS011;3986;41.884;23.466;2022-11-12T14:53:46;85.83;;;47.50;;
7881;SDS011;3986;41.884;23.466;2022-11-12T14:56:22;70.93;;;51.37;;
7881;SDS011;3986;41.884;23.466;2022-11-12T14:58:52;117.67;;;82.57;;
7881;SDS011;3986;41.884;23.466;2022-11-12T15:01:22;106.63;;;75.80;;
7881;SDS011;3986;41.884;23.466;2022-11-12T15:03:51;75.10;;;53.10;;
7881;SDS011;3986;41.884;23.466;2022-11-12T15:06:30;97.03;;;61.97;;
7881;SDS011;3986;41.884;23.466;2022-11-12T15:08:59;122.93;;;96.97;;
7881;SDS011;3986;41.884;23.466;2022-11-12T15:11:27;109.97;;;72.53;;